createdAt,value
2023-05-10T00:00:19.400Z,15.80
2023-05-10T00:02:48.249Z,15.70
2023-05-10T00:05:16.558Z,15.70
2023-05-10T00:07:45.894Z,15.70
2023-05-10T00:10:14.409Z,15.70
2023-05-10T00:12:42.617Z,15.60
2023-05-10T00:15:12.659Z,15.60
2023-05-10T00:17:41.435Z,15.60
2023-05-10T00:20:10.327Z,15.60
2023-05-10T00:22:38.320Z,15.60
2023-05-10T00:25:07.489Z,15.50
2023-05-10T00:27:35.520Z,15.50
2023-05-10T00:30:03.498Z,15.50
2023-05-10T00:32:32.920Z,15.40
2023-05-10T00:35:00.950Z,15.40
2023-05-10T00:37:28.954Z,15.40
2023-05-10T00:39:56.990Z,15.30
2023-05-10T00:42:24.987Z,15.30
2023-05-10T00:44:52.988Z,15.30
2023-05-10T00:47:21.100Z,15.20
2023-05-10T00:49:50.519Z,15.20
2023-05-10T00:52:18.573Z,15.10
2023-05-10T00:54:47.179Z,15.10
2023-05-10T00:57:15.190Z,15.10
2023-05-10T00:59:43.292Z,15.00
2023-05-10T01:02:11.580Z,15.00
2023-05-10T01:04:40.650Z,14.90
2023-05-10T01:07:10.232Z,14.90
2023-05-10T01:09:38.290Z,14.80
2023-05-10T01:12:08.501Z,14.80
2023-05-10T01:14:38.179Z,14.80
2023-05-10T01:17:08.085Z,14.80
2023-05-10T01:19:38.986Z,14.80
2023-05-10T01:22:23.508Z,14.80
2023-05-10T01:25:23.809Z,14.70
2023-05-10T01:28:14.825Z,14.70
2023-05-10T01:31:06.292Z,14.70
2023-05-10T01:33:41.298Z,14.60
2023-05-10T01:36:26.911Z,14.60
2023-05-10T01:39:00.187Z,14.60
2023-05-10T01:41:37.571Z,14.60
2023-05-10T01:44:12.367Z,14.50
2023-05-10T01:46:42.172Z,14.50
2023-05-10T01:49:13.778Z,14.50
2023-05-10T01:51:47.208Z,14.50
2023-05-10T01:54:17.244Z,14.40
2023-05-10T01:56:47.665Z,14.40
2023-05-10T01:59:19.364Z,14.40
2023-05-10T02:01:49.145Z,14.40
2023-05-10T02:04:19.606Z,14.30
2023-05-10T02:06:49.441Z,14.30
2023-05-10T02:09:18.579Z,14.30
2023-05-10T02:11:47.012Z,14.30
2023-05-10T02:14:16.341Z,14.30
2023-05-10T02:16:46.829Z,14.20
2023-05-10T02:19:16.706Z,14.20
2023-05-10T02:21:47.507Z,14.20
2023-05-10T02:24:17.902Z,14.20
2023-05-10T02:26:47.339Z,14.20
2023-05-10T02:29:17.137Z,14.20
2023-05-10T02:31:45.875Z,14.20
2023-05-10T02:34:14.425Z,14.20
2023-05-10T02:36:44.979Z,14.10
2023-05-10T02:39:15.336Z,14.10
2023-05-10T02:41:45.395Z,14.10
2023-05-10T02:44:16.685Z,14.10
2023-05-10T02:46:44.743Z,14.10
2023-05-10T02:49:12.920Z,14.10
2023-05-10T02:51:48.958Z,14.00
2023-05-10T02:54:22.386Z,14.00
2023-05-10T02:56:54.897Z,14.00
2023-05-10T02:59:22.940Z,13.90
2023-05-10T03:01:51.054Z,13.90
2023-05-10T03:04:19.218Z,13.90
2023-05-10T03:06:48.941Z,13.90
2023-05-10T03:09:17.282Z,13.90
2023-05-10T03:11:58.731Z,13.80
2023-05-10T03:14:42.019Z,13.80
2023-05-10T03:17:16.860Z,13.80
2023-05-10T03:19:49.051Z,13.80
2023-05-10T03:22:27.169Z,13.70
2023-05-10T03:24:58.731Z,13.70
2023-05-10T03:27:29.013Z,13.70
2023-05-10T03:29:57.815Z,13.70
2023-05-10T03:32:25.963Z,13.70
2023-05-10T03:34:54.039Z,13.70
2023-05-10T03:37:23.402Z,13.70
2023-05-10T03:39:51.500Z,13.70
2023-05-10T03:42:19.803Z,13.70
2023-05-10T03:44:47.802Z,13.70
2023-05-10T03:47:15.865Z,13.70
2023-05-10T03:49:44.067Z,13.70
2023-05-10T03:52:12.113Z,13.70
2023-05-10T03:54:41.504Z,13.70
2023-05-10T03:57:09.540Z,13.60
2023-05-10T03:59:37.538Z,13.60
2023-05-10T04:02:05.641Z,13.60
2023-05-10T04:04:33.677Z,13.70
2023-05-10T04:07:01.695Z,13.60
2023-05-10T04:09:29.704Z,13.70
2023-05-10T04:12:00.518Z,13.70
2023-05-10T04:14:28.507Z,13.60
2023-05-10T04:16:56.764Z,13.60
2023-05-10T04:19:25.213Z,13.60
2023-05-10T04:21:53.220Z,13.60
2023-05-10T04:24:21.243Z,13.60
2023-05-10T04:26:49.233Z,13.60
2023-05-10T04:29:18.651Z,13.60
2023-05-10T04:31:46.656Z,13.60
2023-05-10T04:34:14.841Z,13.60
2023-05-10T04:36:42.877Z,13.60
2023-05-10T04:39:10.896Z,13.60
2023-05-10T04:41:40.445Z,13.50
2023-05-10T04:44:08.461Z,13.50
2023-05-10T04:46:37.910Z,13.50
2023-05-10T04:49:06.014Z,13.60
2023-05-10T04:51:34.168Z,13.60
2023-05-10T04:54:06.561Z,13.60
2023-05-10T04:56:35.072Z,13.60
2023-05-10T04:59:03.670Z,13.60
2023-05-10T05:01:31.791Z,13.60
2023-05-10T05:04:01.324Z,13.60
2023-05-10T05:06:29.326Z,13.60
2023-05-10T05:08:57.389Z,13.60
2023-05-10T05:11:26.415Z,13.60
2023-05-10T05:13:54.549Z,13.60
2023-05-10T05:16:22.708Z,13.60
2023-05-10T05:18:50.856Z,13.60
2023-05-10T05:21:21.403Z,13.60
2023-05-10T05:23:49.943Z,13.60
2023-05-10T05:26:17.984Z,13.60
2023-05-10T05:28:46.026Z,13.60
2023-05-10T05:31:14.877Z,13.60
2023-05-10T05:33:42.954Z,13.60
2023-05-10T05:36:11.240Z,13.60
2023-05-10T05:38:40.629Z,13.70
2023-05-10T05:41:08.657Z,13.70
2023-05-10T05:43:38.353Z,13.70
2023-05-10T05:46:07.004Z,13.70
2023-05-10T05:48:35.073Z,13.70
2023-05-10T05:51:04.675Z,13.70
2023-05-10T05:53:34.660Z,13.70
2023-05-10T05:56:04.650Z,13.80
2023-05-10T05:58:32.719Z,13.80
2023-05-10T06:01:00.707Z,13.80
2023-05-10T06:03:28.760Z,13.80
2023-05-10T06:05:56.770Z,13.80
2023-05-10T06:08:24.791Z,13.90
2023-05-10T06:10:52.830Z,13.90
2023-05-10T06:13:22.280Z,13.90
2023-05-10T06:15:50.314Z,14.00
2023-05-10T06:18:18.358Z,14.10
2023-05-10T06:20:46.346Z,14.10
2023-05-10T06:23:14.385Z,14.10
2023-05-10T06:25:42.377Z,14.10
2023-05-10T06:28:10.445Z,14.20
2023-05-10T06:30:39.830Z,14.20
2023-05-10T06:33:07.864Z,14.20
2023-05-10T06:35:35.960Z,14.30
2023-05-10T06:38:03.967Z,14.30
2023-05-10T06:40:32.071Z,14.40
2023-05-10T06:43:00.290Z,14.40
2023-05-10T06:45:28.378Z,14.50
2023-05-10T06:47:57.862Z,14.50
2023-05-10T06:50:25.973Z,14.60
2023-05-10T06:52:54.007Z,14.60
2023-05-10T06:55:22.182Z,14.70
2023-05-10T06:57:50.188Z,14.70
2023-05-10T07:00:19.354Z,14.80
2023-05-10T07:02:47.931Z,14.80
2023-05-10T07:05:17.914Z,14.90
2023-05-10T07:07:46.091Z,14.90
2023-05-10T07:10:14.373Z,14.90
2023-05-10T07:12:42.478Z,15.00
2023-05-10T07:15:11.643Z,15.10
2023-05-10T07:17:40.426Z,15.10
2023-05-10T07:20:10.984Z,15.20
2023-05-10T07:22:40.365Z,15.30
2023-05-10T07:25:09.255Z,15.30
2023-05-10T07:27:37.306Z,15.30
2023-05-10T07:30:05.885Z,15.40
2023-05-10T07:32:34.090Z,15.50
2023-05-10T07:35:02.124Z,15.50
2023-05-10T07:37:30.142Z,15.60
2023-05-10T07:39:59.476Z,15.70
2023-05-10T07:42:27.788Z,15.80
2023-05-10T07:44:55.944Z,15.80
2023-05-10T07:47:24.454Z,15.90
2023-05-10T07:49:52.571Z,16.00
2023-05-10T07:52:22.431Z,16.00
2023-05-10T07:54:50.734Z,16.00
2023-05-10T07:57:20.181Z,16.10
2023-05-10T07:59:48.509Z,16.10
2023-05-10T08:02:16.702Z,16.20
2023-05-10T08:04:44.862Z,16.20
2023-05-10T08:07:12.981Z,16.20
2023-05-10T08:09:41.033Z,16.30
2023-05-10T08:12:09.041Z,16.20
2023-05-10T08:14:38.590Z,16.30
2023-05-10T08:17:06.849Z,16.30
2023-05-10T08:19:34.897Z,16.40
2023-05-10T08:22:02.933Z,16.40
2023-05-10T08:24:31.010Z,16.40
2023-05-10T08:26:59.353Z,16.50
2023-05-10T08:29:28.519Z,16.50
2023-05-10T08:31:59.917Z,16.50
2023-05-10T08:34:27.954Z,16.50
2023-05-10T08:36:56.045Z,16.50
2023-05-10T08:39:30.466Z,16.50
2023-05-10T08:42:03.519Z,16.50
2023-05-10T08:44:32.894Z,16.40
2023-05-10T08:47:07.064Z,16.40
2023-05-10T08:49:35.771Z,16.40
2023-05-10T08:52:06.350Z,16.40
2023-05-10T08:54:35.120Z,16.30
2023-05-10T08:57:03.529Z,16.20
2023-05-10T08:59:31.975Z,16.20
2023-05-10T09:02:00.767Z,16.10
2023-05-10T09:04:31.493Z,16.00
2023-05-10T09:06:59.821Z,16.00
2023-05-10T09:09:29.190Z,15.90
2023-05-10T09:11:57.364Z,15.90
2023-05-10T09:14:26.621Z,15.90
2023-05-10T09:16:56.236Z,15.80
2023-05-10T09:19:24.329Z,15.80
2023-05-10T09:21:53.676Z,15.80
2023-05-10T09:24:21.871Z,15.80
2023-05-10T09:26:50.636Z,15.80
2023-05-10T09:29:18.706Z,15.80
2023-05-10T09:31:48.828Z,15.80
2023-05-10T09:34:21.198Z,15.80
2023-05-10T09:36:58.487Z,15.80
2023-05-10T09:39:34.025Z,15.80
2023-05-10T09:42:04.675Z,15.80
2023-05-10T09:44:33.762Z,15.80
2023-05-10T09:47:02.168Z,15.80
2023-05-10T09:49:30.540Z,15.80
2023-05-10T09:52:08.025Z,15.90
2023-05-10T09:54:36.961Z,15.80
2023-05-10T09:57:05.244Z,15.80
2023-05-10T09:59:36.223Z,15.70
2023-05-10T10:02:04.784Z,15.70
2023-05-10T10:04:33.148Z,15.60
2023-05-10T10:07:06.703Z,15.60
2023-05-10T10:09:36.138Z,15.50
2023-05-10T10:12:05.571Z,15.40
2023-05-10T10:14:33.682Z,15.30
2023-05-10T10:19:36.268Z,15.20
2023-05-10T10:22:06.161Z,15.20
2023-05-10T10:24:34.189Z,15.20
2023-05-10T10:27:10.932Z,15.10
2023-05-10T10:29:46.789Z,15.10
2023-05-10T10:32:26.649Z,15.10
2023-05-10T10:34:56.048Z,15.10
2023-05-10T10:37:26.127Z,15.10
2023-05-10T10:39:54.643Z,15.10
2023-05-10T10:42:46.944Z,15.10
2023-05-10T10:45:15.558Z,15.10
2023-05-10T10:47:44.675Z,15.10
2023-05-10T10:50:14.000Z,15.10
2023-05-10T10:52:44.211Z,15.10
2023-05-10T10:55:13.575Z,15.10
2023-05-10T10:57:53.256Z,15.10
2023-05-10T11:00:27.516Z,15.20
2023-05-10T11:02:57.838Z,15.20
2023-05-10T11:05:27.797Z,15.20
2023-05-10T11:07:58.398Z,15.20
2023-05-10T11:10:27.407Z,15.20
2023-05-10T11:12:56.595Z,15.20
2023-05-10T11:15:31.562Z,15.20
2023-05-10T11:17:59.810Z,15.20
2023-05-10T11:20:34.264Z,15.10
2023-05-10T11:23:16.705Z,15.10
2023-05-10T11:25:46.041Z,15.10
2023-05-10T11:28:14.430Z,15.10
2023-05-10T11:30:45.087Z,15.10
2023-05-10T11:33:18.357Z,15.00
2023-05-10T11:35:46.582Z,15.00
2023-05-10T11:38:16.381Z,15.00
2023-05-10T11:40:44.527Z,15.00
2023-05-10T11:43:13.336Z,15.00
2023-05-10T11:45:44.495Z,14.90
2023-05-10T11:48:12.550Z,15.00
2023-05-10T11:50:40.670Z,15.00
2023-05-10T11:53:08.685Z,15.00
2023-05-10T11:55:38.047Z,15.00
2023-05-10T11:58:06.058Z,15.00
2023-05-10T12:00:34.441Z,15.00
2023-05-10T12:03:03.955Z,15.00
2023-05-10T12:05:35.093Z,15.00
2023-05-10T12:08:16.220Z,15.00
2023-05-10T12:10:45.684Z,15.00
2023-05-10T12:13:15.331Z,15.00
2023-05-10T12:15:44.330Z,15.00
2023-05-10T12:18:12.690Z,15.10
2023-05-10T12:20:41.229Z,15.10
2023-05-10T12:23:11.619Z,15.10
2023-05-10T12:25:40.772Z,15.10
2023-05-10T12:28:11.178Z,15.10
2023-05-10T12:30:40.337Z,15.20
2023-05-10T12:33:11.475Z,15.20
2023-05-10T12:35:47.608Z,15.20
2023-05-10T12:38:27.859Z,15.20
2023-05-10T12:40:55.992Z,15.30
2023-05-10T12:43:25.509Z,15.30
2023-05-10T12:45:53.671Z,15.40
2023-05-10T12:48:21.847Z,15.40
2023-05-10T12:50:49.879Z,15.40
2023-05-10T12:53:18.605Z,15.40
2023-05-10T12:55:46.795Z,15.40
2023-05-10T12:58:31.521Z,15.40
2023-05-10T13:01:05.172Z,15.50
2023-05-10T13:03:33.637Z,15.40
2023-05-10T13:06:01.665Z,15.50
2023-05-10T13:08:34.203Z,15.50
2023-05-10T13:11:02.551Z,15.60
2023-05-10T13:13:30.705Z,15.60
2023-05-10T13:15:58.710Z,15.70
2023-05-10T13:18:28.272Z,15.80
2023-05-10T13:20:56.749Z,15.80
2023-05-10T13:23:24.796Z,15.90
2023-05-10T13:25:53.078Z,15.90
2023-05-10T13:28:21.086Z,15.90
2023-05-10T13:30:49.084Z,15.90
2023-05-10T13:33:17.058Z,16.00
2023-05-10T13:35:46.554Z,16.10
2023-05-10T13:38:14.922Z,16.10
2023-05-10T13:40:42.962Z,16.20
2023-05-10T13:43:11.040Z,16.20
2023-05-10T13:45:39.879Z,16.30
2023-05-10T13:48:07.994Z,16.30
2023-05-10T13:50:36.072Z,16.30
2023-05-10T13:53:06.367Z,16.30
2023-05-10T13:55:34.646Z,16.30
2023-05-10T13:58:02.650Z,16.30
2023-05-10T14:00:30.661Z,16.30
2023-05-10T14:02:58.734Z,16.40
2023-05-10T14:05:27.026Z,16.40
2023-05-10T14:07:55.736Z,16.40
2023-05-10T14:10:25.108Z,16.40
2023-05-10T14:12:53.123Z,16.40
2023-05-10T14:15:21.108Z,16.40
2023-05-10T14:17:49.184Z,16.50
2023-05-10T14:20:17.358Z,16.50
2023-05-10T14:22:45.397Z,16.50
2023-05-10T14:25:13.728Z,16.50
2023-05-10T14:27:43.106Z,16.50
2023-05-10T14:30:11.988Z,16.50
2023-05-10T14:32:39.992Z,16.40
2023-05-10T14:35:10.743Z,16.40
2023-05-10T14:37:40.411Z,16.30
2023-05-10T14:40:11.284Z,16.40
2023-05-10T14:42:39.348Z,16.40
2023-05-10T14:45:09.960Z,16.50
2023-05-10T14:47:37.993Z,16.50
2023-05-10T14:50:06.914Z,16.60
2023-05-10T14:52:34.910Z,16.60
2023-05-10T14:55:03.313Z,16.70
2023-05-10T14:57:31.733Z,16.70
2023-05-10T14:59:59.931Z,16.80
2023-05-10T15:02:29.823Z,16.80
2023-05-10T15:04:58.473Z,16.80
2023-05-10T15:07:27.035Z,16.90
2023-05-10T15:09:55.164Z,16.90
2023-05-10T15:12:23.163Z,16.90
2023-05-10T15:14:51.192Z,17.00
2023-05-10T15:17:19.208Z,17.00
2023-05-10T15:19:50.371Z,17.10
2023-05-10T15:22:18.929Z,17.10
2023-05-10T15:24:47.024Z,17.10
2023-05-10T15:27:15.035Z,17.20
2023-05-10T15:29:43.032Z,17.10
2023-05-10T15:32:11.092Z,17.20
2023-05-10T15:34:39.081Z,17.20
2023-05-10T15:37:08.435Z,17.20
2023-05-10T15:39:36.421Z,17.30
2023-05-10T15:42:04.939Z,17.30
2023-05-10T15:44:32.935Z,17.30
2023-05-10T15:47:00.938Z,17.30
2023-05-10T15:49:28.954Z,17.40
2023-05-10T15:51:56.959Z,17.40
2023-05-10T15:54:27.139Z,17.40
2023-05-10T15:56:56.628Z,17.40
2023-05-10T15:59:24.642Z,17.40
2023-05-10T16:01:53.211Z,17.30
2023-05-10T16:04:21.318Z,17.30
2023-05-10T16:06:49.314Z,17.30
2023-05-10T16:09:17.398Z,17.30
2023-05-10T16:11:46.822Z,17.30
2023-05-10T16:14:14.874Z,17.20
2023-05-10T16:16:43.192Z,17.00
2023-05-10T16:19:11.354Z,17.00
2023-05-10T16:21:39.454Z,16.90
2023-05-10T16:24:07.733Z,16.90
2023-05-10T16:26:40.674Z,16.80
2023-05-10T16:29:10.454Z,16.80
2023-05-10T16:31:38.457Z,16.80
2023-05-10T16:34:06.485Z,16.80
2023-05-10T16:36:35.044Z,16.70
2023-05-10T16:39:03.892Z,16.60
2023-05-10T16:41:34.357Z,16.60
2023-05-10T16:44:02.410Z,16.50
2023-05-10T16:46:33.117Z,16.50
2023-05-10T16:49:01.295Z,16.40
2023-05-10T16:51:29.513Z,16.30
2023-05-10T16:53:57.546Z,16.20
2023-05-10T16:56:26.633Z,16.20
2023-05-10T16:58:54.801Z,16.10
2023-05-10T17:01:24.946Z,16.00
2023-05-10T17:03:55.976Z,16.00
2023-05-10T17:06:24.060Z,15.90
2023-05-10T17:08:52.150Z,15.90
2023-05-10T17:11:21.833Z,15.80
2023-05-10T17:13:49.915Z,15.70
2023-05-10T17:16:18.004Z,15.60
2023-05-10T17:18:46.563Z,15.60
2023-05-10T17:21:16.436Z,15.60
2023-05-10T17:23:44.457Z,15.50
2023-05-10T17:26:12.507Z,15.50
2023-05-10T17:28:40.648Z,15.40
2023-05-10T17:31:08.714Z,15.40
2023-05-10T17:33:36.734Z,15.30
2023-05-10T17:36:05.058Z,15.30
2023-05-10T17:38:34.428Z,15.30
2023-05-10T17:41:02.453Z,15.30
2023-05-10T17:43:30.446Z,15.30
2023-05-10T17:45:58.486Z,15.30
2023-05-10T17:48:26.723Z,15.30
2023-05-10T17:50:54.752Z,15.30
2023-05-10T17:53:22.773Z,15.30
2023-05-10T17:55:53.768Z,15.30
2023-05-10T17:58:21.824Z,15.30
2023-05-10T18:00:49.988Z,15.30
2023-05-10T18:03:18.003Z,15.30
2023-05-10T18:05:46.876Z,15.30
2023-05-10T18:08:15.878Z,15.30
2023-05-10T18:10:43.901Z,15.20
2023-05-10T18:13:13.254Z,15.20
2023-05-10T18:15:41.281Z,15.20
2023-05-10T18:18:10.820Z,15.20
2023-05-10T18:20:39.120Z,15.10
2023-05-10T18:23:07.328Z,15.10
2023-05-10T18:25:35.331Z,15.10
2023-05-10T18:28:03.535Z,15.00
2023-05-10T18:30:32.908Z,15.00
2023-05-10T18:33:01.016Z,15.00
2023-05-10T18:35:29.065Z,15.00
2023-05-10T18:37:57.192Z,14.90
2023-05-10T18:40:25.305Z,14.90
2023-05-10T18:42:53.348Z,14.80
2023-05-10T18:45:21.371Z,14.80
2023-05-10T18:47:50.838Z,14.70
2023-05-10T18:50:19.780Z,14.70
2023-05-10T18:52:47.805Z,14.70
2023-05-10T18:55:16.263Z,14.70
2023-05-10T18:57:45.171Z,14.70
2023-05-10T19:00:14.209Z,14.70
2023-05-10T19:02:42.435Z,14.60
2023-05-10T19:05:12.122Z,14.60
2023-05-10T19:07:43.414Z,14.60
2023-05-10T19:10:13.541Z,14.60
2023-05-10T19:12:42.284Z,14.50
2023-05-10T19:15:11.746Z,14.60
2023-05-10T19:17:41.110Z,14.60
2023-05-10T19:20:11.629Z,14.60
2023-05-10T19:25:13.083Z,14.60
2023-05-10T19:27:42.436Z,14.50
2023-05-10T19:30:11.332Z,14.50
2023-05-10T19:32:39.489Z,14.50
2023-05-10T19:35:08.013Z,14.50
2023-05-10T19:37:37.541Z,14.40
2023-05-10T19:40:06.434Z,14.40
2023-05-10T19:42:34.473Z,14.40
2023-05-10T19:45:02.454Z,14.50
2023-05-10T19:47:30.689Z,14.50
2023-05-10T19:49:58.831Z,14.50
2023-05-10T19:52:27.153Z,14.60
2023-05-10T19:54:56.569Z,14.60
2023-05-10T19:57:24.580Z,14.60
2023-05-10T19:59:52.859Z,14.60
2023-05-10T20:02:21.010Z,14.60
2023-05-10T20:04:48.983Z,14.60
2023-05-10T20:07:17.017Z,14.60
2023-05-10T20:09:46.077Z,14.60
2023-05-10T20:12:15.515Z,14.60
2023-05-10T20:14:43.473Z,14.60
2023-05-10T20:17:11.637Z,14.60
2023-05-10T20:19:39.667Z,14.60
2023-05-10T20:22:09.347Z,14.60
2023-05-10T20:24:37.749Z,14.60
2023-05-10T20:27:05.779Z,14.60
2023-05-10T20:29:35.135Z,14.60
2023-05-10T20:32:03.306Z,14.60
2023-05-10T20:34:31.783Z,14.60
2023-05-10T20:36:59.753Z,14.60
2023-05-10T20:39:27.724Z,14.50
2023-05-10T20:41:55.782Z,14.50
2023-05-10T20:44:24.784Z,14.40
2023-05-10T20:46:54.452Z,14.50
2023-05-10T20:49:22.530Z,14.50
2023-05-10T20:51:51.008Z,14.50
2023-05-10T20:54:18.976Z,14.50
2023-05-10T20:56:46.970Z,14.50
2023-05-10T20:59:15.009Z,14.50
2023-05-10T21:01:43.057Z,14.50
2023-05-10T21:04:12.574Z,14.50
2023-05-10T21:06:40.662Z,14.50
2023-05-10T21:09:08.672Z,14.50
2023-05-10T21:11:38.356Z,14.50
2023-05-10T21:14:06.573Z,14.40
2023-05-10T21:16:34.780Z,14.40
2023-05-10T21:19:02.953Z,14.40
2023-05-10T21:21:43.998Z,14.40
2023-05-10T21:24:12.453Z,14.40
2023-05-10T21:26:41.068Z,14.30
2023-05-10T21:29:09.467Z,14.30
2023-05-10T21:31:39.850Z,14.30
2023-05-10T21:34:08.160Z,14.30
2023-05-10T21:36:37.784Z,14.30
2023-05-10T21:39:05.901Z,14.30
2023-05-10T21:41:33.893Z,14.30
2023-05-10T21:44:01.993Z,14.30
2023-05-10T21:46:30.026Z,14.30
2023-05-10T21:48:58.088Z,14.20
2023-05-10T21:51:26.225Z,14.20
2023-05-10T21:53:55.682Z,14.20
2023-05-10T21:56:23.949Z,14.20
2023-05-10T21:58:52.066Z,14.10
2023-05-10T22:01:20.120Z,14.20
2023-05-10T22:03:48.358Z,14.10
2023-05-10T22:06:16.447Z,14.10
2023-05-10T22:08:44.415Z,14.10
2023-05-10T22:11:13.825Z,14.10
2023-05-10T22:13:41.823Z,14.10
2023-05-10T22:16:09.839Z,14.10
2023-05-10T22:18:38.106Z,14.00
2023-05-10T22:21:06.486Z,14.00
2023-05-10T22:23:34.511Z,14.00
2023-05-10T22:26:03.017Z,14.00
2023-05-10T22:28:32.414Z,14.00
2023-05-10T22:31:00.574Z,14.00
2023-05-10T22:33:28.625Z,13.90
2023-05-10T22:35:56.708Z,13.90
2023-05-10T22:38:24.794Z,13.90
2023-05-10T22:40:52.869Z,14.00
2023-05-10T22:43:20.902Z,14.00
2023-05-10T22:45:50.244Z,13.90
2023-05-10T22:48:18.413Z,13.90
2023-05-10T22:50:46.393Z,13.90
2023-05-10T22:53:14.372Z,13.80
2023-05-10T22:55:42.601Z,13.80
2023-05-10T22:58:10.666Z,13.80
2023-05-10T23:00:39.424Z,13.90
2023-05-10T23:03:08.791Z,13.90
2023-05-10T23:05:36.817Z,13.90
2023-05-10T23:08:04.816Z,13.90
2023-05-10T23:10:32.991Z,13.90
2023-05-10T23:13:01.147Z,13.90
2023-05-10T23:15:29.726Z,13.90
2023-05-10T23:18:00.930Z,13.90
2023-05-10T23:20:30.443Z,13.90
2023-05-10T23:22:58.461Z,13.90
2023-05-10T23:25:26.522Z,13.90
2023-05-10T23:27:54.523Z,13.90
2023-05-10T23:30:22.631Z,13.90
2023-05-10T23:32:50.686Z,13.90
2023-05-10T23:35:18.729Z,14.00
2023-05-10T23:37:48.058Z,14.00
2023-05-10T23:40:17.174Z,14.00
2023-05-10T23:42:45.340Z,14.00
2023-05-10T23:45:13.428Z,14.00
2023-05-10T23:47:41.514Z,13.90
2023-05-10T23:50:10.678Z,13.90
2023-05-10T23:52:38.706Z,13.90
2023-05-10T23:55:09.383Z,13.90
2023-05-10T23:57:37.426Z,13.90
